createdAt,value
2023-03-02T00:01:01.801Z,5.00
2023-03-02T00:03:28.222Z,4.82
2023-03-02T00:05:54.942Z,4.72
2023-03-02T00:08:21.596Z,5.20
2023-03-02T00:10:48.223Z,5.13
2023-03-02T00:13:15.182Z,4.60
2023-03-02T00:15:42.166Z,4.80
2023-03-02T00:18:09.424Z,4.95
2023-03-02T00:20:35.882Z,4.85
2023-03-02T00:23:02.797Z,4.50
2023-03-02T00:25:29.217Z,5.00
2023-03-02T00:27:56.150Z,4.63
2023-03-02T00:30:22.511Z,5.05
2023-03-02T00:32:49.391Z,5.20
2023-03-02T00:35:15.831Z,4.50
2023-03-02T00:37:42.237Z,4.20
2023-03-02T00:40:08.734Z,4.82
2023-03-02T00:42:35.040Z,4.75
2023-03-02T00:45:01.439Z,4.45
2023-03-02T00:47:28.211Z,4.93
2023-03-02T00:49:54.580Z,4.38
2023-03-02T00:52:20.960Z,4.43
2023-03-02T00:54:47.342Z,4.60
2023-03-02T00:57:13.698Z,4.90
2023-03-02T00:59:40.425Z,4.45
2023-03-02T01:02:06.861Z,4.20
2023-03-02T01:04:33.545Z,4.65
2023-03-02T01:07:00.008Z,4.65
2023-03-02T01:09:26.401Z,4.60
2023-03-02T01:11:53.309Z,4.55
2023-03-02T01:14:19.648Z,4.40
2023-03-02T01:16:46.209Z,4.65
2023-03-02T01:19:13.071Z,4.63
2023-03-02T01:21:39.477Z,4.53
2023-03-02T01:24:05.814Z,4.32
2023-03-02T01:26:32.476Z,4.85
2023-03-02T01:28:59.097Z,4.40
2023-03-02T01:31:25.493Z,4.50
2023-03-02T01:33:51.928Z,4.70
2023-03-02T01:36:18.729Z,4.65
2023-03-02T01:38:45.246Z,4.00
2023-03-02T01:41:11.966Z,5.00
2023-03-02T01:43:38.415Z,4.70
2023-03-02T01:46:05.065Z,4.47
2023-03-02T01:48:31.614Z,4.40
2023-03-02T01:50:58.218Z,4.40
2023-03-02T01:53:24.557Z,5.20
2023-03-02T01:55:51.204Z,4.22
2023-03-02T01:58:17.542Z,4.88
2023-03-02T02:00:44.211Z,4.80
2023-03-02T02:03:11.012Z,4.55
2023-03-02T02:05:37.986Z,4.80
2023-03-02T02:08:04.390Z,4.40
2023-03-02T02:10:30.799Z,4.30
2023-03-02T02:12:57.264Z,4.88
2023-03-02T02:15:24.531Z,4.40
2023-03-02T02:17:50.997Z,4.50
2023-03-02T02:20:17.793Z,4.43
2023-03-02T02:22:44.795Z,4.95
2023-03-02T02:25:11.206Z,4.97
2023-03-02T02:27:37.627Z,4.38
2023-03-02T02:30:04.540Z,4.55
2023-03-02T02:32:31.220Z,4.93
2023-03-02T02:34:58.031Z,5.00
2023-03-02T02:37:24.357Z,4.28
2023-03-02T02:39:51.129Z,4.40
2023-03-02T02:42:17.719Z,4.25
2023-03-02T02:44:44.865Z,4.35
2023-03-02T02:47:11.300Z,4.80
2023-03-02T02:49:38.083Z,4.35
2023-03-02T02:52:04.906Z,4.82
2023-03-02T02:54:31.292Z,4.60
2023-03-02T02:56:58.286Z,4.70
2023-03-02T02:59:24.667Z,4.85
2023-03-02T03:01:50.964Z,4.68
2023-03-02T03:04:17.460Z,4.75
2023-03-02T03:06:44.171Z,4.53
2023-03-02T03:09:10.527Z,4.95
2023-03-02T03:11:37.062Z,4.63
2023-03-02T03:14:03.533Z,4.50
2023-03-02T03:16:30.162Z,4.13
2023-03-02T03:18:56.725Z,4.75
2023-03-02T03:21:23.289Z,4.93
2023-03-02T03:23:49.683Z,4.93
2023-03-02T03:26:16.091Z,4.45
2023-03-02T03:28:42.625Z,4.45
2023-03-02T03:31:09.159Z,5.00
2023-03-02T03:33:35.497Z,4.53
2023-03-02T03:36:02.861Z,5.18
2023-03-02T03:38:29.332Z,4.43
2023-03-02T03:40:55.665Z,4.28
2023-03-02T03:43:22.004Z,4.57
2023-03-02T03:45:48.409Z,4.95
2023-03-02T03:48:14.852Z,4.40
2023-03-02T03:50:41.436Z,4.65
2023-03-02T03:53:07.818Z,4.97
2023-03-02T03:55:34.648Z,4.63
2023-03-02T03:58:01.412Z,4.78
2023-03-02T04:00:28.275Z,4.35
2023-03-02T04:02:54.724Z,4.25
2023-03-02T04:05:21.201Z,4.25
2023-03-02T04:07:47.560Z,5.00
2023-03-02T04:10:13.876Z,4.63
2023-03-02T04:12:40.199Z,4.72
2023-03-02T04:15:06.958Z,4.35
2023-03-02T04:17:33.667Z,4.65
2023-03-02T04:20:00.426Z,4.40
2023-03-02T04:22:27.574Z,4.20
2023-03-02T04:24:54.503Z,4.40
2023-03-02T04:27:20.868Z,4.78
2023-03-02T04:29:47.517Z,4.32
2023-03-02T04:32:14.309Z,4.65
2023-03-02T04:34:40.795Z,4.65
2023-03-02T04:37:07.490Z,4.30
2023-03-02T04:39:33.850Z,4.97
2023-03-02T04:42:00.246Z,4.35
2023-03-02T04:44:26.697Z,4.57
2023-03-02T04:46:53.434Z,4.78
2023-03-02T04:49:19.921Z,4.65
2023-03-02T04:51:46.245Z,5.07
2023-03-02T04:54:12.649Z,5.07
2023-03-02T04:56:38.988Z,4.45
2023-03-02T04:59:05.406Z,4.68
2023-03-02T05:01:31.983Z,5.00
2023-03-02T05:03:58.401Z,5.13
2023-03-02T05:06:25.145Z,4.30
2023-03-02T05:08:51.544Z,4.75
2023-03-02T05:11:18.065Z,4.70
2023-03-02T05:13:44.784Z,4.45
2023-03-02T05:16:11.295Z,4.78
2023-03-02T05:18:38.264Z,4.93
2023-03-02T05:21:04.952Z,5.00
2023-03-02T05:23:31.382Z,4.78
2023-03-02T05:25:57.761Z,4.45
2023-03-02T05:28:24.342Z,4.70
2023-03-02T05:30:50.849Z,4.53
2023-03-02T05:33:17.534Z,4.38
2023-03-02T05:35:44.071Z,4.80
2023-03-02T05:38:10.518Z,4.25
2023-03-02T05:40:37.047Z,4.60
2023-03-02T05:43:03.651Z,4.88
2023-03-02T05:45:30.388Z,4.95
2023-03-02T05:47:57.201Z,4.75
2023-03-02T05:50:23.543Z,4.72
2023-03-02T05:52:50.029Z,4.97
2023-03-02T05:55:16.458Z,4.97
2023-03-02T05:57:43.374Z,4.53
2023-03-02T06:00:09.709Z,4.65
2023-03-02T06:02:36.018Z,5.00
2023-03-02T06:05:02.418Z,4.85
2023-03-02T06:07:28.823Z,4.95
2023-03-02T06:09:55.598Z,4.57
2023-03-02T06:12:22.072Z,4.65
2023-03-02T06:14:48.745Z,4.93
2023-03-02T06:17:15.368Z,4.93
2023-03-02T06:19:41.753Z,4.63
2023-03-02T06:22:08.148Z,5.30
2023-03-02T06:24:34.502Z,4.60
2023-03-02T06:27:00.857Z,4.68
2023-03-02T06:29:27.258Z,4.70
2023-03-02T06:31:53.715Z,5.10
2023-03-02T06:34:20.297Z,4.30
2023-03-02T06:36:47.165Z,5.18
2023-03-02T06:39:13.544Z,5.22
2023-03-02T06:41:39.912Z,5.30
2023-03-02T06:44:06.225Z,5.10
2023-03-02T06:46:33.363Z,4.85
2023-03-02T06:48:59.985Z,5.00
2023-03-02T06:51:26.689Z,4.97
2023-03-02T06:53:53.463Z,4.82
2023-03-02T06:56:20.387Z,5.90
2023-03-02T06:58:47.504Z,5.25
2023-03-02T07:01:13.843Z,5.47
2023-03-02T07:03:40.268Z,5.47
2023-03-02T07:06:07.622Z,5.45
2023-03-02T07:08:34.185Z,5.78
2023-03-02T07:11:00.985Z,5.90
2023-03-02T07:13:27.589Z,5.60
2023-03-02T07:15:53.965Z,5.93
2023-03-02T07:18:21.024Z,6.10
2023-03-02T07:20:47.444Z,6.55
2023-03-02T07:23:13.909Z,10.05
2023-03-02T07:25:40.338Z,10.50
2023-03-02T07:28:06.840Z,13.52
2023-03-02T07:30:33.284Z,14.88
2023-03-02T07:32:59.945Z,15.60
2023-03-02T07:35:26.837Z,16.42
2023-03-02T07:37:53.261Z,15.68
2023-03-02T07:40:20.002Z,16.95
2023-03-02T07:42:46.446Z,17.70
2023-03-02T07:45:12.862Z,17.92
2023-03-02T07:47:39.225Z,18.85
2023-03-02T07:50:06.132Z,18.60
2023-03-02T07:52:32.667Z,19.38
2023-03-02T07:54:59.624Z,19.05
2023-03-02T07:57:26.044Z,18.20
2023-03-02T07:59:52.449Z,19.65
2023-03-02T08:02:18.887Z,20.33
2023-03-02T08:04:45.794Z,18.73
2023-03-02T08:07:12.402Z,18.77
2023-03-02T08:09:38.746Z,19.33
2023-03-02T08:12:05.195Z,19.45
2023-03-02T08:14:31.746Z,19.45
2023-03-02T08:16:58.177Z,19.50
2023-03-02T08:19:24.855Z,19.70
2023-03-02T08:21:51.170Z,18.70
2023-03-02T08:24:17.488Z,19.35
2023-03-02T08:26:43.917Z,19.48
2023-03-02T08:29:10.626Z,20.48
2023-03-02T08:31:37.586Z,20.05
2023-03-02T08:34:04.561Z,19.73
2023-03-02T08:36:31.122Z,19.58
2023-03-02T08:38:57.816Z,20.88
2023-03-02T08:41:24.710Z,20.40
2023-03-02T08:43:51.777Z,20.33
2023-03-02T08:46:18.243Z,20.70
2023-03-02T08:48:44.933Z,20.40
2023-03-02T08:51:11.657Z,20.00
2023-03-02T08:53:38.150Z,20.48
2023-03-02T08:56:04.561Z,19.38
2023-03-02T08:58:31.371Z,19.35
2023-03-02T09:00:57.944Z,20.30
2023-03-02T09:03:24.387Z,20.75
2023-03-02T09:05:50.869Z,20.67
2023-03-02T09:08:17.280Z,19.92
2023-03-02T09:10:43.694Z,20.40
2023-03-02T09:13:10.097Z,20.73
2023-03-02T09:15:36.491Z,19.80
2023-03-02T09:18:03.055Z,21.63
2023-03-02T09:20:29.415Z,19.52
2023-03-02T09:22:55.822Z,20.48
2023-03-02T09:25:22.116Z,21.58
2023-03-02T09:27:48.704Z,22.00
2023-03-02T09:30:15.483Z,20.77
2023-03-02T09:32:42.149Z,22.38
2023-03-02T09:35:08.809Z,21.83
2023-03-02T09:37:35.453Z,22.27
2023-03-02T09:40:01.813Z,20.75
2023-03-02T09:42:41.811Z,21.10
2023-03-02T09:45:10.110Z,20.63
2023-03-02T09:47:36.633Z,22.70
2023-03-02T09:50:03.033Z,24.15
2023-03-02T09:52:29.398Z,25.13
2023-03-02T09:54:55.725Z,26.88
2023-03-02T09:57:22.121Z,27.27
2023-03-02T09:59:48.419Z,27.38
2023-03-02T10:02:14.869Z,26.30
2023-03-02T10:04:41.381Z,26.90
2023-03-02T10:07:08.239Z,27.42
2023-03-02T10:09:34.634Z,24.75
2023-03-02T10:12:00.962Z,30.00
2023-03-02T10:14:27.455Z,28.55
2023-03-02T10:16:53.798Z,27.83
2023-03-02T10:19:20.183Z,28.23
2023-03-02T10:21:46.526Z,27.90
2023-03-02T10:24:13.460Z,28.65
2023-03-02T10:26:39.983Z,29.20
2023-03-02T10:29:06.343Z,27.60
2023-03-02T10:31:32.679Z,28.52
2023-03-02T10:33:59.115Z,28.73
2023-03-02T10:36:25.630Z,28.85
2023-03-02T10:38:52.267Z,27.63
2023-03-02T10:41:18.683Z,29.95
2023-03-02T10:43:45.545Z,28.17
2023-03-02T10:46:12.221Z,30.45
2023-03-02T10:48:41.029Z,29.90
2023-03-02T10:51:07.647Z,29.50
2023-03-02T10:53:34.286Z,30.00
2023-03-02T10:56:00.603Z,29.05
2023-03-02T10:58:27.983Z,27.73
2023-03-02T11:00:54.424Z,30.38
2023-03-02T11:03:20.929Z,28.35
2023-03-02T11:05:47.656Z,28.20
2023-03-02T11:08:14.236Z,28.92
2023-03-02T11:10:40.854Z,28.55
2023-03-02T11:13:07.275Z,29.85
2023-03-02T11:15:33.646Z,28.98
2023-03-02T11:18:00.139Z,29.38
2023-03-02T11:20:26.466Z,28.85
2023-03-02T11:22:53.334Z,27.58
2023-03-02T11:25:19.643Z,26.33
2023-03-02T11:27:46.380Z,27.85
2023-03-02T11:30:12.865Z,27.50
2023-03-02T11:32:39.538Z,28.13
2023-03-02T11:35:05.967Z,26.40
2023-03-02T11:37:32.320Z,28.42
2023-03-02T11:39:59.630Z,26.33
2023-03-02T11:42:26.120Z,28.25
2023-03-02T11:44:52.942Z,28.42
2023-03-02T11:47:19.424Z,27.83
2023-03-02T11:49:45.910Z,27.02
2023-03-02T11:52:12.649Z,27.35
2023-03-02T11:54:39.617Z,27.38
2023-03-02T11:57:05.926Z,27.45
2023-03-02T11:59:32.619Z,28.15
2023-03-02T12:01:59.713Z,26.45
2023-03-02T12:04:26.607Z,27.75
2023-03-02T12:06:53.178Z,27.45
2023-03-02T12:09:19.526Z,26.10
2023-03-02T12:11:45.848Z,26.00
2023-03-02T12:14:12.187Z,27.05
2023-03-02T12:16:39.132Z,26.95
2023-03-02T12:19:05.702Z,27.60
2023-03-02T12:21:32.412Z,27.15
2023-03-02T12:23:58.957Z,27.42
2023-03-02T12:26:25.442Z,27.30
2023-03-02T12:28:52.520Z,26.38
2023-03-02T12:31:19.357Z,26.83
2023-03-02T12:33:45.866Z,25.88
2023-03-02T12:36:12.258Z,26.67
2023-03-02T12:38:39.212Z,27.73
2023-03-02T12:41:05.578Z,26.27
2023-03-02T12:43:31.983Z,28.17
2023-03-02T12:45:58.539Z,24.42
2023-03-02T12:48:25.957Z,25.83
2023-03-02T12:50:52.534Z,26.45
2023-03-02T12:53:18.882Z,26.45
2023-03-02T12:55:45.281Z,27.15
2023-03-02T12:58:11.619Z,25.90
2023-03-02T13:00:38.042Z,26.10
2023-03-02T13:03:04.438Z,25.65
2023-03-02T13:05:31.306Z,25.95
2023-03-02T13:07:58.282Z,25.08
2023-03-02T13:10:24.828Z,26.98
2023-03-02T13:12:51.257Z,26.70
2023-03-02T13:15:17.662Z,27.30
2023-03-02T13:17:44.316Z,26.30
2023-03-02T13:20:10.804Z,24.05
2023-03-02T13:22:37.668Z,25.60
2023-03-02T13:25:04.040Z,25.02
2023-03-02T13:27:30.381Z,24.35
2023-03-02T13:29:57.283Z,24.90
2023-03-02T13:32:24.116Z,25.70
2023-03-02T13:34:50.526Z,25.02
2023-03-02T13:37:16.859Z,25.25
2023-03-02T13:39:43.461Z,24.40
2023-03-02T13:42:10.452Z,25.30
2023-03-02T13:44:36.947Z,25.40
2023-03-02T13:47:03.733Z,24.60
2023-03-02T13:49:30.170Z,24.38
2023-03-02T13:51:56.604Z,23.77
2023-03-02T13:54:23.106Z,23.45
2023-03-02T13:56:49.455Z,23.67
2023-03-02T13:59:15.789Z,23.08
2023-03-02T14:01:42.261Z,22.95
2023-03-02T14:04:08.711Z,23.25
2023-03-02T14:06:35.743Z,23.90
2023-03-02T14:09:02.581Z,22.90
2023-03-02T14:11:28.985Z,25.35
2023-03-02T14:13:55.305Z,24.42
2023-03-02T14:16:21.952Z,24.75
2023-03-02T14:18:48.330Z,26.90
2023-03-02T14:21:14.830Z,28.23
2023-03-02T14:23:41.392Z,28.38
2023-03-02T14:26:07.814Z,27.95
2023-03-02T14:28:34.735Z,28.02
2023-03-02T14:31:01.687Z,27.70
2023-03-02T14:33:28.389Z,27.98
2023-03-02T14:35:55.026Z,26.92
2023-03-02T14:38:21.436Z,25.25
2023-03-02T14:40:47.848Z,25.85
2023-03-02T14:43:14.270Z,27.92
2023-03-02T14:45:40.940Z,25.55
2023-03-02T14:48:07.435Z,24.23
2023-03-02T14:50:33.772Z,25.92
2023-03-02T14:53:00.431Z,25.73
2023-03-02T14:55:27.312Z,25.52
2023-03-02T14:57:53.817Z,25.00
2023-03-02T15:00:20.491Z,25.65
2023-03-02T15:02:47.864Z,24.55
2023-03-02T15:05:14.598Z,24.52
2023-03-02T15:07:41.062Z,24.98
2023-03-02T15:10:07.411Z,24.25
2023-03-02T15:12:34.164Z,23.95
2023-03-02T15:15:01.258Z,24.83
2023-03-02T15:17:27.632Z,25.55
2023-03-02T15:19:54.467Z,23.00
2023-03-02T15:22:20.804Z,24.13
2023-03-02T15:24:47.623Z,23.70
2023-03-02T15:27:14.040Z,24.10
2023-03-02T15:29:40.388Z,22.13
2023-03-02T15:32:06.755Z,23.77
2023-03-02T15:34:33.592Z,23.35
2023-03-02T15:36:59.974Z,23.33
2023-03-02T15:39:26.524Z,23.58
2023-03-02T15:41:53.134Z,24.20
2023-03-02T15:44:19.452Z,23.90
2023-03-02T15:46:45.974Z,23.75
2023-03-02T15:49:12.421Z,22.63
2023-03-02T15:51:38.765Z,24.13
2023-03-02T15:54:05.670Z,22.75
2023-03-02T15:56:42.343Z,22.50
2023-03-02T15:59:08.894Z,23.40
2023-03-02T16:01:35.320Z,22.42
2023-03-02T16:04:01.768Z,23.80
2023-03-02T16:06:28.294Z,22.63
2023-03-02T16:08:55.093Z,21.17
2023-03-02T16:11:21.973Z,21.75
2023-03-02T16:13:48.955Z,22.67
2023-03-02T16:16:15.566Z,23.02
2023-03-02T16:18:42.579Z,22.17
2023-03-02T16:21:09.326Z,21.48
2023-03-02T16:23:35.607Z,22.83
2023-03-02T16:26:02.461Z,21.83
2023-03-02T16:28:28.837Z,22.13
2023-03-02T16:30:55.530Z,22.80
2023-03-02T16:33:22.034Z,23.20
2023-03-02T16:35:49.411Z,22.20
2023-03-02T16:38:16.625Z,22.33
2023-03-02T16:40:43.095Z,22.60
2023-03-02T16:43:09.451Z,21.85
2023-03-02T16:45:36.290Z,22.70
2023-03-02T16:48:02.819Z,22.33
2023-03-02T16:50:29.557Z,23.70
2023-03-02T16:52:55.953Z,23.77
2023-03-02T16:55:22.637Z,22.60
2023-03-02T16:57:48.980Z,23.25
2023-03-02T17:00:15.510Z,23.45
2023-03-02T17:02:41.917Z,23.50
2023-03-02T17:05:08.537Z,22.92
2023-03-02T17:07:35.324Z,21.35
2023-03-02T17:10:02.469Z,22.48
2023-03-02T17:12:29.068Z,23.45
2023-03-02T17:14:55.815Z,22.42
2023-03-02T17:17:22.624Z,23.13
2023-03-02T17:19:49.506Z,22.58
2023-03-02T17:22:15.966Z,21.85
2023-03-02T17:24:42.386Z,20.95
2023-03-02T17:27:23.778Z,22.23
2023-03-02T17:29:51.213Z,21.38
2023-03-02T17:32:18.658Z,21.90
2023-03-02T17:34:45.296Z,22.75
2023-03-02T17:37:11.704Z,21.88
2023-03-02T17:39:38.083Z,22.80
2023-03-02T17:42:04.595Z,22.15
2023-03-02T17:44:30.903Z,22.42
2023-03-02T17:46:57.243Z,21.45
2023-03-02T17:49:23.607Z,21.38
2023-03-02T17:51:50.026Z,20.90
2023-03-02T17:54:16.518Z,22.27
2023-03-02T17:56:42.938Z,133.85
2023-03-02T17:59:10.149Z,172.98
2023-03-02T18:01:37.036Z,150.23
2023-03-02T18:04:03.779Z,139.10
2023-03-02T18:06:30.197Z,144.38
2023-03-02T18:08:57.093Z,275.27
2023-03-02T18:11:23.665Z,223.23
2023-03-02T18:13:50.750Z,207.48
2023-03-02T18:16:17.289Z,193.95
2023-03-02T18:18:43.970Z,176.68
2023-03-02T18:21:10.442Z,168.27
2023-03-02T18:23:37.113Z,155.43
2023-03-02T18:26:03.780Z,147.10
2023-03-02T18:28:30.255Z,143.25
2023-03-02T18:30:56.765Z,133.75
2023-03-02T18:33:23.194Z,127.85
2023-03-02T18:35:49.710Z,120.15
2023-03-02T18:38:16.226Z,112.13
2023-03-02T18:40:42.732Z,110.30
2023-03-02T18:43:09.345Z,102.72
2023-03-02T18:45:35.783Z,98.05
2023-03-02T18:48:02.278Z,90.47
2023-03-02T18:50:29.078Z,87.45
2023-03-02T18:52:55.431Z,82.82
2023-03-02T18:55:22.046Z,78.28
2023-03-02T18:57:48.450Z,75.97
2023-03-02T19:00:14.953Z,71.03
2023-03-02T19:02:41.359Z,67.75
2023-03-02T19:05:07.958Z,64.15
2023-03-02T19:07:34.478Z,61.42
2023-03-02T19:10:01.096Z,60.28
2023-03-02T19:12:27.906Z,57.17
2023-03-02T19:14:54.383Z,53.85
2023-03-02T19:17:20.686Z,50.25
2023-03-02T19:19:47.299Z,49.58
2023-03-02T19:22:14.102Z,47.22
2023-03-02T19:24:40.472Z,45.55
2023-03-02T19:27:07.327Z,43.53
2023-03-02T19:29:33.719Z,42.08
2023-03-02T19:32:00.203Z,40.58
2023-03-02T19:34:26.974Z,38.58
2023-03-02T19:36:53.294Z,39.45
2023-03-02T19:39:19.647Z,35.95
2023-03-02T19:41:46.291Z,34.72
2023-03-02T19:44:12.710Z,33.92
2023-03-02T19:46:39.085Z,32.55
2023-03-02T19:49:05.439Z,32.17
2023-03-02T19:51:31.726Z,30.75
2023-03-02T19:53:58.086Z,28.80
2023-03-02T19:56:24.584Z,29.42
2023-03-02T19:58:50.964Z,28.67
2023-03-02T20:01:17.470Z,26.92
2023-03-02T20:03:43.961Z,27.73
2023-03-02T20:06:10.305Z,25.98
2023-03-02T20:08:36.666Z,26.48
2023-03-02T20:11:03.277Z,24.95
2023-03-02T20:13:29.724Z,24.88
2023-03-02T20:15:56.098Z,23.27
2023-03-02T20:18:22.827Z,73.85
2023-03-02T20:20:49.169Z,176.10
2023-03-02T20:23:15.607Z,181.80
2023-03-02T20:25:41.954Z,162.85
2023-03-02T20:28:08.332Z,145.40
2023-03-02T20:30:34.881Z,165.55
2023-03-02T20:33:01.495Z,220.48
2023-03-02T20:35:27.895Z,200.88
2023-03-02T20:37:54.498Z,185.98
2023-03-02T20:40:21.239Z,170.68
2023-03-02T20:42:48.334Z,153.27
2023-03-02T20:45:15.055Z,147.30
2023-03-02T20:47:41.546Z,137.35
2023-03-02T20:50:07.891Z,131.05
2023-03-02T20:52:34.666Z,124.72
2023-03-02T20:55:01.470Z,114.47
2023-03-02T20:57:28.072Z,112.03
2023-03-02T20:59:54.510Z,201.15
2023-03-02T21:02:20.846Z,254.88
2023-03-02T21:04:47.206Z,238.63
2023-03-02T21:07:13.727Z,221.48
2023-03-02T21:09:40.219Z,198.55
2023-03-02T21:12:06.758Z,190.40
2023-03-02T21:14:33.787Z,178.38
2023-03-02T21:17:00.178Z,161.02
2023-03-02T21:19:26.704Z,153.88
2023-03-02T21:21:53.065Z,142.13
2023-03-02T21:24:19.408Z,135.65
2023-03-02T21:26:45.741Z,128.95
2023-03-02T21:29:12.250Z,121.30
2023-03-02T21:31:39.130Z,115.78
2023-03-02T21:34:05.632Z,111.07
2023-03-02T21:36:32.344Z,104.63
2023-03-02T21:38:59.563Z,98.20
2023-03-02T21:41:26.100Z,93.43
2023-03-02T21:43:52.504Z,89.82
2023-03-02T21:46:19.159Z,83.60
2023-03-02T21:48:45.869Z,218.40
2023-03-02T21:51:12.222Z,194.82
2023-03-02T21:53:38.831Z,180.75
2023-03-02T21:56:05.281Z,165.40
2023-03-02T21:58:31.698Z,149.07
2023-03-02T22:00:58.124Z,142.38
2023-03-02T22:03:25.136Z,138.23
2023-03-02T22:05:51.835Z,130.95
2023-03-02T22:08:18.679Z,117.97
2023-03-02T22:10:45.989Z,116.38
2023-03-02T22:13:12.549Z,108.47
2023-03-02T22:15:39.136Z,105.70
2023-03-02T22:18:05.913Z,107.55
2023-03-02T22:20:32.387Z,191.10
2023-03-02T22:22:59.654Z,219.20
2023-03-02T22:25:26.584Z,193.88
2023-03-02T22:27:53.530Z,177.02
2023-03-02T22:30:20.267Z,170.32
2023-03-02T22:32:47.008Z,342.25
2023-03-02T22:35:15.122Z,304.10
2023-03-02T22:37:42.239Z,287.85
2023-03-02T22:40:09.203Z,278.08
2023-03-02T22:42:35.863Z,274.10
2023-03-02T22:45:02.901Z,266.85
2023-03-02T22:47:29.525Z,261.08
2023-03-02T22:49:56.117Z,261.10
2023-03-02T22:52:22.952Z,318.48
2023-03-02T22:54:49.540Z,568.17
2023-03-02T22:57:16.701Z,475.63
2023-03-02T22:59:43.232Z,637.90
2023-03-02T23:02:09.879Z,612.53
2023-03-02T23:04:36.491Z,570.42
2023-03-02T23:07:03.772Z,543.90
2023-03-02T23:09:30.366Z,513.40
2023-03-02T23:11:57.459Z,584.33
2023-03-02T23:14:25.553Z,668.38
2023-03-02T23:16:52.286Z,617.97
2023-03-02T23:19:19.096Z,574.90
2023-03-02T23:21:45.764Z,558.42
2023-03-02T23:24:12.383Z,543.28
2023-03-02T23:26:39.719Z,530.72
2023-03-02T23:29:06.352Z,513.95
2023-03-02T23:31:33.882Z,491.92
2023-03-02T23:34:00.292Z,496.45
2023-03-02T23:36:26.910Z,487.42
2023-03-02T23:38:54.009Z,464.85
2023-03-02T23:41:21.826Z,455.83
2023-03-02T23:43:49.648Z,437.42
2023-03-02T23:46:16.332Z,445.73
2023-03-02T23:48:42.817Z,424.80
2023-03-02T23:51:09.684Z,426.83
2023-03-02T23:53:36.578Z,412.60
2023-03-02T23:56:04.169Z,401.13
2023-03-02T23:58:32.207Z,391.10
